createdAt,value
2023-02-15T00:00:46.911Z,36.60
2023-02-15T00:03:18.937Z,37.28
2023-02-15T00:05:49.315Z,40.73
2023-02-15T00:08:21.000Z,38.53
2023-02-15T00:10:51.561Z,34.03
2023-02-15T00:13:22.156Z,39.13
2023-02-15T00:15:55.149Z,35.52
2023-02-15T00:18:28.805Z,34.33
2023-02-15T00:21:01.423Z,38.02
2023-02-15T00:23:32.008Z,36.20
2023-02-15T00:26:08.121Z,40.03
2023-02-15T00:28:41.001Z,37.95
2023-02-15T00:31:13.701Z,37.98
2023-02-15T00:33:45.004Z,37.27
2023-02-15T00:36:17.030Z,42.80
2023-02-15T00:38:48.002Z,40.53
2023-02-15T00:41:18.442Z,36.17
2023-02-15T00:43:48.984Z,39.90
2023-02-15T00:46:19.569Z,42.03
2023-02-15T00:48:50.769Z,38.50
2023-02-15T00:51:24.718Z,38.57
2023-02-15T00:53:55.483Z,39.90
2023-02-15T00:56:26.088Z,39.27
2023-02-15T00:58:56.684Z,40.87
2023-02-15T01:01:28.562Z,37.50
2023-02-15T01:03:59.224Z,40.90
2023-02-15T01:06:29.729Z,41.13
2023-02-15T01:09:00.374Z,38.97
2023-02-15T01:11:32.515Z,37.87
2023-02-15T01:14:04.869Z,42.50
2023-02-15T01:16:35.872Z,41.48
2023-02-15T01:19:07.110Z,42.97
2023-02-15T01:21:37.685Z,43.00
2023-02-15T01:24:15.346Z,42.77
2023-02-15T01:26:46.007Z,42.83
2023-02-15T01:29:17.068Z,46.87
2023-02-15T01:31:48.212Z,42.10
2023-02-15T01:34:18.930Z,45.27
2023-02-15T01:36:49.495Z,43.67
2023-02-15T01:39:20.006Z,44.90
2023-02-15T01:41:52.320Z,46.05
2023-02-15T01:44:43.642Z,42.47
2023-02-15T01:47:19.699Z,43.28
2023-02-15T01:49:51.962Z,45.87
2023-02-15T01:52:22.592Z,43.97
2023-02-15T01:54:53.601Z,45.03
2023-02-15T01:57:27.337Z,48.40
2023-02-15T02:00:00.751Z,49.42
2023-02-15T02:02:31.480Z,50.20
2023-02-15T02:05:27.844Z,50.73
2023-02-15T02:08:01.016Z,50.00
2023-02-15T02:10:31.794Z,49.80
2023-02-15T02:13:05.414Z,50.93
2023-02-15T02:15:47.673Z,48.03
2023-02-15T02:18:56.480Z,51.63
2023-02-15T02:21:49.041Z,52.33
2023-02-15T02:24:42.644Z,54.00
2023-02-15T02:27:38.640Z,56.10
2023-02-15T02:30:35.413Z,53.10
2023-02-15T02:33:32.136Z,54.42
2023-02-15T02:36:39.521Z,56.70
2023-02-15T02:39:46.263Z,54.13
2023-02-15T02:42:25.814Z,50.73
2023-02-15T02:45:04.931Z,54.40
2023-02-15T02:47:47.202Z,57.60
2023-02-15T02:50:26.411Z,53.00
2023-02-15T02:52:58.680Z,54.43
2023-02-15T02:55:44.233Z,54.70
2023-02-15T02:58:35.801Z,51.77
2023-02-15T03:01:18.269Z,54.63
2023-02-15T03:03:51.762Z,55.83
2023-02-15T03:06:25.284Z,57.63
2023-02-15T03:09:01.626Z,54.77
2023-02-15T03:11:33.864Z,62.17
2023-02-15T03:14:04.638Z,56.57
2023-02-15T03:16:36.103Z,55.23
2023-02-15T03:19:23.346Z,55.97
2023-02-15T03:22:01.070Z,60.27
2023-02-15T03:24:37.226Z,62.20
2023-02-15T03:27:11.040Z,62.53
2023-02-15T03:29:41.716Z,63.10
2023-02-15T03:32:14.192Z,62.77
2023-02-15T03:34:45.757Z,64.90
2023-02-15T03:37:19.410Z,67.03
2023-02-15T03:40:06.074Z,61.57
2023-02-15T03:42:39.720Z,72.43
2023-02-15T03:45:16.304Z,60.13
2023-02-15T03:47:49.680Z,68.80
2023-02-15T03:50:42.650Z,64.17
2023-02-15T03:53:17.177Z,65.27
2023-02-15T03:55:53.050Z,63.47
2023-02-15T03:58:41.429Z,60.80
2023-02-15T04:01:32.809Z,61.10
2023-02-15T04:04:09.244Z,61.03
2023-02-15T04:06:41.033Z,64.93
2023-02-15T04:09:29.561Z,59.43
2023-02-15T04:12:05.729Z,59.23
2023-02-15T04:14:54.142Z,57.07
2023-02-15T04:17:24.771Z,58.77
2023-02-15T04:20:13.240Z,65.13
2023-02-15T04:23:02.089Z,55.53
2023-02-15T04:25:32.666Z,64.27
2023-02-15T04:28:03.192Z,65.67
2023-02-15T04:30:33.755Z,66.43
2023-02-15T04:33:04.416Z,65.57
2023-02-15T04:35:36.420Z,65.00
2023-02-15T04:38:06.907Z,65.70
2023-02-15T04:40:37.357Z,66.00
2023-02-15T04:43:07.860Z,64.87
2023-02-15T04:45:38.413Z,61.40
2023-02-15T04:48:08.940Z,63.83
2023-02-15T04:50:39.512Z,62.10
2023-02-15T04:53:10.077Z,66.50
2023-02-15T04:55:40.495Z,64.43
2023-02-15T04:58:11.072Z,66.60
2023-02-15T05:00:41.705Z,69.53
2023-02-15T05:03:12.152Z,62.20
2023-02-15T05:05:42.755Z,66.20
2023-02-15T05:08:13.152Z,64.67
2023-02-15T05:10:43.729Z,64.87
2023-02-15T05:13:14.073Z,65.07
2023-02-15T05:15:50.096Z,64.60
2023-02-15T05:18:22.292Z,59.33
2023-02-15T05:20:52.856Z,63.97
2023-02-15T05:23:23.424Z,64.53
2023-02-15T05:26:12.252Z,67.60
2023-02-15T05:28:43.668Z,60.77
2023-02-15T05:31:20.255Z,69.30
2023-02-15T05:33:50.855Z,63.10
2023-02-15T05:36:21.514Z,63.70
2023-02-15T05:38:52.032Z,62.97
2023-02-15T05:41:23.065Z,62.37
2023-02-15T05:43:53.378Z,66.87
2023-02-15T05:46:23.798Z,62.47
2023-02-15T05:48:54.367Z,61.60
2023-02-15T05:51:24.979Z,68.63
2023-02-15T05:53:55.498Z,72.17
2023-02-15T05:56:26.142Z,65.83
2023-02-15T05:58:56.500Z,66.50
2023-02-15T06:01:27.049Z,65.90
2023-02-15T06:03:58.654Z,64.53
2023-02-15T06:06:29.317Z,64.73
2023-02-15T06:08:59.730Z,67.20
2023-02-15T06:11:30.261Z,64.43
2023-02-15T06:14:00.784Z,63.13
2023-02-15T06:16:31.507Z,71.47
2023-02-15T06:19:03.279Z,68.70
2023-02-15T06:21:33.721Z,66.73
2023-02-15T06:24:04.412Z,64.97
2023-02-15T06:26:36.608Z,71.73
2023-02-15T06:29:07.180Z,68.07
2023-02-15T06:31:37.850Z,76.77
2023-02-15T06:34:08.559Z,76.17
2023-02-15T06:36:39.274Z,79.17
2023-02-15T06:39:10.131Z,78.30
2023-02-15T06:41:46.229Z,79.03
2023-02-15T06:44:19.528Z,79.07
2023-02-15T06:46:50.156Z,77.67
2023-02-15T06:49:20.770Z,81.57
2023-02-15T06:51:51.448Z,87.17
2023-02-15T06:54:22.466Z,83.40
2023-02-15T06:56:53.616Z,77.13
2023-02-15T06:59:24.186Z,77.10
2023-02-15T07:01:54.680Z,83.07
2023-02-15T07:04:25.571Z,76.63
2023-02-15T07:06:56.217Z,82.00
2023-02-15T07:09:26.894Z,84.00
2023-02-15T07:12:16.894Z,78.40
2023-02-15T07:14:48.456Z,79.73
2023-02-15T07:17:36.240Z,78.17
2023-02-15T07:19:52.469Z,77.63
2023-02-15T07:22:22.856Z,72.30
2023-02-15T07:24:55.290Z,83.27
2023-02-15T07:27:26.461Z,78.90
2023-02-15T07:29:57.547Z,80.87
2023-02-15T07:32:32.633Z,81.20
2023-02-15T07:35:04.192Z,83.90
2023-02-15T07:37:35.814Z,84.13
2023-02-15T07:40:08.836Z,79.33
2023-02-15T07:42:41.268Z,81.30
2023-02-15T07:45:11.797Z,80.33
2023-02-15T07:47:42.314Z,79.93
2023-02-15T07:50:12.937Z,81.93
2023-02-15T07:52:44.202Z,81.17
2023-02-15T07:55:16.956Z,80.17
2023-02-15T07:57:48.520Z,78.20
2023-02-15T08:00:23.171Z,71.17
2023-02-15T08:03:14.703Z,68.33
2023-02-15T08:05:47.122Z,62.03
2023-02-15T08:08:33.169Z,63.93
2023-02-15T08:11:29.469Z,58.93
2023-02-15T08:14:12.221Z,61.67
2023-02-15T08:16:54.160Z,61.03
2023-02-15T08:19:27.720Z,63.73
2023-02-15T08:22:00.811Z,60.47
2023-02-15T08:24:40.526Z,62.93
2023-02-15T08:27:12.616Z,65.77
2023-02-15T08:29:43.247Z,61.30
2023-02-15T08:32:14.969Z,54.93
2023-02-15T08:34:45.637Z,58.67
2023-02-15T08:37:16.500Z,58.00
2023-02-15T08:39:46.926Z,61.33
2023-02-15T08:42:19.071Z,57.33
2023-02-15T08:44:52.633Z,65.10
2023-02-15T08:47:23.399Z,57.97
2023-02-15T08:49:54.205Z,60.87
2023-02-15T08:52:24.627Z,63.00
2023-02-15T08:54:56.026Z,56.13
2023-02-15T08:57:26.794Z,64.80
2023-02-15T08:59:57.197Z,62.67
2023-02-15T09:04:53.769Z,55.07
2023-02-15T09:07:24.234Z,58.83
2023-02-15T09:09:56.965Z,56.83
2023-02-15T09:12:27.388Z,50.40
2023-02-15T09:14:58.957Z,47.70
2023-02-15T09:17:29.522Z,49.67
2023-02-15T09:20:01.551Z,47.80
2023-02-15T09:22:32.257Z,51.47
2023-02-15T09:25:03.962Z,50.23
2023-02-15T09:27:37.320Z,51.57
2023-02-15T09:30:09.340Z,52.47
2023-02-15T09:32:40.167Z,50.07
2023-02-15T09:35:11.033Z,48.60
2023-02-15T09:37:44.345Z,51.50
2023-02-15T09:40:18.436Z,48.83
2023-02-15T09:46:33.143Z,48.37
2023-02-15T09:49:06.713Z,50.00
2023-02-15T09:51:41.393Z,54.40
2023-02-15T09:54:26.936Z,47.97
2023-02-15T09:57:09.336Z,44.00
2023-02-15T09:59:55.066Z,42.50
2023-02-15T10:02:37.795Z,44.80
2023-02-15T10:05:24.381Z,47.43
2023-02-15T10:08:02.659Z,46.00
2023-02-15T10:10:41.031Z,45.03
2023-02-15T10:13:20.298Z,48.83
2023-02-15T10:15:56.827Z,49.60
2023-02-15T10:18:33.750Z,44.43
2023-02-15T10:21:34.023Z,47.80
2023-02-15T10:24:08.252Z,46.50
2023-02-15T10:26:46.451Z,42.90
2023-02-15T10:29:29.863Z,46.17
2023-02-15T10:32:09.288Z,48.90
2023-02-15T10:34:44.633Z,51.07
2023-02-15T10:37:34.603Z,46.83
2023-02-15T10:40:15.099Z,46.57
2023-02-15T10:43:07.293Z,44.50
2023-02-15T10:46:05.073Z,41.50
2023-02-15T10:48:47.276Z,42.60
2023-02-15T10:51:27.969Z,44.97
2023-02-15T10:54:30.869Z,50.73
2023-02-15T10:57:07.149Z,44.17
2023-02-15T10:59:57.077Z,44.13
2023-02-15T11:02:48.991Z,43.43
2023-02-15T11:05:37.642Z,38.90
2023-02-15T11:08:11.284Z,40.73
2023-02-15T11:10:56.661Z,38.07
2023-02-15T11:13:30.326Z,38.33
2023-02-15T11:16:07.261Z,38.73
2023-02-15T11:18:43.529Z,39.77
2023-02-15T11:21:23.175Z,42.13
2023-02-15T11:23:55.297Z,39.73
2023-02-15T11:26:32.720Z,39.70
2023-02-15T11:29:21.100Z,38.00
2023-02-15T11:32:00.810Z,42.47
2023-02-15T11:34:39.940Z,38.78
2023-02-15T11:37:16.268Z,39.37
2023-02-15T11:39:48.881Z,42.23
2023-02-15T11:42:24.053Z,42.83
2023-02-15T11:45:26.155Z,35.95
2023-02-15T11:47:58.882Z,34.57
2023-02-15T11:50:32.908Z,34.93
2023-02-15T11:53:15.900Z,39.30
2023-02-15T11:55:53.068Z,36.93
2023-02-15T11:58:29.494Z,40.60
2023-02-15T12:01:21.354Z,35.93
2023-02-15T12:03:57.134Z,37.63
2023-02-15T12:06:46.006Z,35.43
2023-02-15T12:09:24.531Z,36.80
2023-02-15T12:11:59.211Z,39.55
2023-02-15T12:14:34.538Z,37.10
2023-02-15T12:17:05.141Z,36.13
2023-02-15T12:19:45.268Z,37.98
2023-02-15T12:22:37.632Z,36.95
2023-02-15T12:25:40.119Z,34.87
2023-02-15T12:28:41.175Z,35.03
2023-02-15T12:31:26.708Z,33.47
2023-02-15T12:34:01.653Z,33.80
2023-02-15T12:36:37.918Z,30.90
2023-02-15T12:39:17.802Z,32.00
2023-02-15T12:42:05.961Z,33.90
2023-02-15T12:44:42.115Z,34.80
2023-02-15T12:47:28.856Z,31.75
2023-02-15T12:50:22.230Z,29.87
2023-02-15T12:53:09.720Z,29.75
2023-02-15T12:55:33.175Z,30.15
2023-02-15T12:58:15.917Z,30.55
2023-02-15T13:00:48.653Z,30.02
2023-02-15T13:03:25.799Z,29.52
2023-02-15T13:06:01.744Z,24.35
2023-02-15T13:08:47.041Z,26.23
2023-02-15T13:11:16.100Z,25.97
2023-02-15T13:14:01.494Z,26.95
2023-02-15T13:16:44.225Z,30.35
2023-02-15T13:19:37.388Z,29.40
2023-02-15T13:22:12.727Z,25.77
2023-02-15T13:24:53.890Z,22.75
2023-02-15T13:27:27.503Z,27.65
2023-02-15T13:30:03.864Z,27.98
2023-02-15T13:32:41.679Z,26.70
2023-02-15T13:35:18.292Z,22.75
2023-02-15T13:38:00.803Z,24.82
2023-02-15T13:40:41.722Z,25.65
2023-02-15T13:43:36.449Z,28.12
2023-02-15T13:46:11.400Z,27.95
2023-02-15T13:48:58.393Z,23.65
2023-02-15T13:51:47.041Z,23.50
2023-02-15T13:54:48.402Z,23.55
2023-02-15T13:57:58.455Z,26.25
2023-02-15T14:00:36.529Z,24.60
2023-02-15T14:03:36.374Z,24.98
2023-02-15T14:06:32.768Z,22.73
2023-02-15T14:09:27.456Z,21.42
2023-02-15T14:12:19.821Z,26.97
2023-02-15T14:15:07.667Z,24.72
2023-02-15T14:17:58.564Z,25.35
2023-02-15T14:20:38.684Z,23.27
2023-02-15T14:23:22.960Z,24.02
2023-02-15T14:26:03.157Z,24.72
2023-02-15T14:28:57.020Z,27.25
2023-02-15T14:31:36.921Z,25.17
2023-02-15T14:34:12.997Z,26.60
2023-02-15T14:36:46.267Z,23.38
2023-02-15T14:39:43.919Z,23.75
2023-02-15T14:42:18.673Z,25.00
2023-02-15T14:45:02.626Z,22.67
2023-02-15T14:47:42.171Z,22.45
2023-02-15T14:50:38.456Z,25.70
2023-02-15T14:53:32.041Z,27.58
2023-02-15T14:56:18.470Z,23.07
2023-02-15T14:58:57.473Z,21.90
2023-02-15T15:01:38.263Z,20.43
2023-02-15T15:04:15.234Z,24.82
2023-02-15T15:06:49.407Z,22.62
2023-02-15T15:09:26.092Z,23.57
2023-02-15T15:12:16.608Z,25.55
2023-02-15T15:14:47.209Z,26.90
2023-02-15T15:17:40.602Z,26.75
2023-02-15T15:20:20.243Z,23.07
2023-02-15T15:22:53.886Z,24.25
2023-02-15T15:25:45.929Z,25.30
2023-02-15T15:28:38.870Z,23.07
2023-02-15T15:31:31.892Z,25.12
2023-02-15T15:34:05.466Z,26.68
2023-02-15T15:36:51.043Z,26.52
2023-02-15T15:39:58.189Z,25.77
2023-02-15T15:42:50.558Z,24.10
2023-02-15T15:45:27.304Z,24.47
2023-02-15T15:48:17.251Z,25.88
2023-02-15T15:50:53.249Z,24.52
2023-02-15T15:53:27.251Z,25.50
2023-02-15T15:56:03.718Z,26.90
2023-02-15T15:58:36.050Z,23.55
2023-02-15T16:01:19.541Z,27.95
2023-02-15T16:03:56.918Z,25.45
2023-02-15T16:06:36.235Z,22.90
2023-02-15T16:09:21.985Z,25.85
2023-02-15T16:12:07.090Z,23.93
2023-02-15T16:14:41.235Z,25.12
2023-02-15T16:17:18.350Z,24.00
2023-02-15T16:19:50.417Z,29.90
2023-02-15T16:22:27.605Z,34.45
2023-02-15T16:25:04.186Z,30.55
2023-02-15T16:27:46.444Z,27.77
2023-02-15T16:30:27.064Z,29.55
2023-02-15T16:33:06.797Z,28.85
2023-02-15T16:35:43.878Z,26.95
2023-02-15T16:38:17.568Z,27.98
2023-02-15T16:40:58.688Z,27.73
2023-02-15T16:43:34.253Z,29.00
2023-02-15T16:46:11.278Z,28.47
2023-02-15T16:48:44.788Z,28.40
2023-02-15T16:51:26.072Z,28.47
2023-02-15T16:54:00.536Z,28.65
2023-02-15T16:56:33.325Z,29.40
2023-02-15T16:59:04.514Z,29.80
2023-02-15T17:01:35.756Z,30.60
2023-02-15T17:04:24.876Z,28.38
2023-02-15T17:07:10.716Z,32.90
2023-02-15T17:09:57.023Z,34.93
2023-02-15T17:12:47.082Z,34.00
2023-02-15T17:15:31.840Z,34.92
2023-02-15T17:18:21.245Z,32.50
2023-02-15T17:20:58.499Z,35.23
2023-02-15T17:23:39.670Z,31.52
2023-02-15T17:26:33.422Z,28.55
2023-02-15T17:29:25.965Z,31.35
2023-02-15T17:32:03.192Z,35.28
2023-02-15T17:34:52.229Z,37.93
2023-02-15T17:37:32.612Z,32.40
2023-02-15T17:40:16.129Z,30.30
2023-02-15T17:42:47.610Z,33.30
2023-02-15T17:45:18.835Z,34.25
2023-02-15T17:47:51.323Z,37.00
2023-02-15T17:50:24.983Z,37.33
2023-02-15T17:52:59.738Z,37.45
2023-02-15T17:55:38.740Z,34.58
2023-02-15T17:58:19.583Z,35.00
2023-02-15T18:01:21.122Z,32.53
2023-02-15T18:04:11.673Z,38.45
2023-02-15T18:07:04.281Z,38.47
2023-02-15T18:09:55.936Z,33.13
2023-02-15T18:12:36.746Z,38.30
2023-02-15T18:15:14.343Z,33.83
2023-02-15T18:17:49.897Z,36.00
2023-02-15T18:20:24.834Z,35.73
2023-02-15T18:22:55.369Z,35.52
2023-02-15T18:25:26.366Z,37.17
2023-02-15T18:27:57.248Z,37.53
2023-02-15T18:30:28.394Z,34.53
2023-02-15T18:33:00.400Z,35.03
2023-02-15T18:35:34.185Z,33.70
2023-02-15T18:38:04.773Z,33.03
2023-02-15T18:40:36.662Z,38.10
2023-02-15T18:43:08.884Z,34.63
2023-02-15T18:45:41.147Z,31.83
2023-02-15T18:48:13.348Z,42.07
2023-02-15T18:50:43.903Z,41.02
2023-02-15T18:53:23.008Z,37.97
2023-02-15T18:55:54.950Z,37.33
2023-02-15T18:58:27.705Z,40.13
2023-02-15T19:00:59.982Z,38.27
2023-02-15T19:03:31.158Z,47.87
2023-02-15T19:06:03.933Z,52.70
2023-02-15T19:08:36.256Z,52.70
2023-02-15T19:11:15.723Z,50.57
2023-02-15T19:13:48.952Z,41.27
2023-02-15T19:16:36.377Z,47.35
2023-02-15T19:19:09.976Z,47.13
2023-02-15T19:22:03.821Z,47.15
2023-02-15T19:24:40.621Z,44.37
2023-02-15T19:27:33.659Z,40.63
2023-02-15T19:30:10.167Z,42.60
2023-02-15T19:32:43.884Z,40.13
2023-02-15T19:35:23.016Z,40.93
2023-02-15T19:37:56.486Z,39.20
2023-02-15T19:40:35.337Z,43.83
2023-02-15T19:43:08.966Z,43.80
2023-02-15T19:45:42.247Z,42.73
2023-02-15T19:48:18.563Z,41.80
2023-02-15T19:50:50.015Z,38.30
2023-02-15T19:53:29.713Z,44.03
2023-02-15T19:56:01.433Z,41.57
2023-02-15T19:58:33.582Z,41.93
2023-02-15T20:01:04.299Z,44.90
2023-02-15T20:03:35.169Z,46.13
2023-02-15T20:06:06.664Z,48.50
2023-02-15T20:08:37.280Z,44.10
2023-02-15T20:11:11.050Z,41.18
2023-02-15T20:13:41.701Z,44.05
2023-02-15T20:16:14.457Z,46.43
2023-02-15T20:18:46.557Z,44.75
2023-02-15T20:21:18.794Z,45.10
2023-02-15T20:23:49.324Z,44.93
2023-02-15T20:26:22.641Z,42.50
2023-02-15T20:28:54.121Z,46.97
2023-02-15T20:31:25.862Z,51.17
2023-02-15T20:33:58.716Z,49.93
2023-02-15T20:36:30.279Z,49.80
2023-02-15T20:39:05.225Z,49.07
2023-02-15T20:41:38.694Z,46.87
2023-02-15T20:44:31.740Z,47.83
2023-02-15T20:47:03.871Z,52.10
2023-02-15T20:49:35.484Z,53.73
2023-02-15T20:52:09.726Z,49.70
2023-02-15T20:54:41.253Z,50.67
2023-02-15T20:57:16.769Z,49.33
2023-02-15T20:59:48.739Z,47.43
2023-02-15T21:02:23.436Z,52.10
2023-02-15T21:04:55.833Z,49.70
2023-02-15T21:07:26.470Z,48.77
2023-02-15T21:09:56.938Z,51.30
2023-02-15T21:12:38.757Z,49.07
2023-02-15T21:15:31.796Z,48.47
2023-02-15T21:18:05.888Z,46.33
2023-02-15T21:20:37.142Z,49.88
2023-02-15T21:23:15.802Z,49.60
2023-02-15T21:25:48.514Z,52.77
2023-02-15T21:28:23.763Z,50.73
2023-02-15T21:30:58.425Z,53.13
2023-02-15T21:33:30.031Z,50.10
2023-02-15T21:36:00.797Z,53.33
2023-02-15T21:38:35.926Z,49.43
2023-02-15T21:41:28.208Z,52.20
2023-02-15T21:44:17.077Z,49.75
2023-02-15T21:47:05.463Z,56.17
2023-02-15T21:49:41.358Z,56.57
2023-02-15T21:52:15.984Z,59.97
2023-02-15T21:54:47.512Z,61.93
2023-02-15T21:57:22.154Z,61.17
2023-02-15T21:59:54.963Z,61.43
2023-02-15T22:02:31.525Z,57.97
2023-02-15T22:05:02.082Z,59.57
2023-02-15T22:07:32.584Z,57.50
2023-02-15T22:10:03.935Z,55.57
2023-02-15T22:12:37.906Z,60.70
2023-02-15T22:15:15.144Z,60.43
2023-02-15T22:17:46.042Z,61.63
2023-02-15T22:20:20.827Z,61.43
2023-02-15T22:22:54.684Z,58.60
2023-02-15T22:25:29.051Z,55.77
2023-02-15T22:28:01.669Z,54.67
2023-02-15T22:30:37.856Z,56.87
2023-02-15T22:33:11.220Z,61.27
2023-02-15T22:35:50.354Z,56.07
2023-02-15T22:38:14.963Z,53.80
2023-02-15T22:40:47.678Z,58.57
2023-02-15T22:43:33.314Z,61.83
2023-02-15T22:46:06.522Z,57.57
2023-02-15T22:48:38.302Z,56.07
2023-02-15T22:51:10.506Z,57.50
2023-02-15T22:53:41.039Z,56.37
2023-02-15T22:56:15.165Z,58.47
2023-02-15T22:58:48.418Z,57.67
2023-02-15T23:01:25.042Z,56.37
2023-02-15T23:04:01.208Z,61.37
2023-02-15T23:06:39.175Z,56.70
2023-02-15T23:09:12.335Z,53.93
2023-02-15T23:11:45.415Z,56.70
2023-02-15T23:14:31.013Z,53.97
2023-02-15T23:17:03.903Z,57.57
2023-02-15T23:19:36.479Z,49.53
2023-02-15T23:22:08.615Z,50.97
2023-02-15T23:24:41.708Z,52.77
2023-02-15T23:27:32.804Z,52.90
2023-02-15T23:30:08.392Z,57.43
2023-02-15T23:32:39.189Z,53.10
2023-02-15T23:35:17.946Z,55.80
2023-02-15T23:37:49.081Z,56.20
2023-02-15T23:40:43.723Z,54.53
2023-02-15T23:43:18.390Z,55.07
2023-02-15T23:45:50.974Z,51.97
2023-02-15T23:48:30.113Z,55.27
2023-02-15T23:51:03.348Z,56.00
2023-02-15T23:53:36.745Z,52.10
2023-02-15T23:56:08.195Z,55.13
2023-02-15T23:58:41.729Z,54.73
